createdAt,value
2023-03-06T00:00:44.974Z,70.40
2023-03-06T00:03:12.233Z,70.60
2023-03-06T00:05:40.008Z,70.70
2023-03-06T00:08:07.285Z,71.10
2023-03-06T00:10:35.841Z,71.60
2023-03-06T00:13:05.278Z,71.70
2023-03-06T00:15:32.835Z,72.00
2023-03-06T00:18:00.146Z,72.00
2023-03-06T00:20:27.682Z,72.00
2023-03-06T00:22:56.290Z,71.90
2023-03-06T00:25:24.178Z,71.90
2023-03-06T00:27:52.981Z,72.20
2023-03-06T00:30:22.630Z,72.40
2023-03-06T00:32:50.525Z,73.00
2023-03-06T00:35:17.984Z,73.00
2023-03-06T00:37:45.458Z,73.00
2023-03-06T00:40:15.369Z,72.80
2023-03-06T00:42:42.701Z,72.80
2023-03-06T00:45:11.930Z,72.70
2023-03-06T00:47:39.560Z,72.90
2023-03-06T00:50:07.676Z,72.90
2023-03-06T00:52:34.951Z,72.60
2023-03-06T00:55:02.207Z,72.70
2023-03-06T00:57:29.443Z,72.60
2023-03-06T00:59:57.876Z,72.80
2023-03-06T01:02:26.453Z,72.80
2023-03-06T01:04:55.120Z,73.20
2023-03-06T01:07:22.406Z,73.80
2023-03-06T01:09:50.867Z,73.80
2023-03-06T01:12:18.120Z,74.10
2023-03-06T01:14:45.393Z,73.80
2023-03-06T01:17:12.606Z,73.70
2023-03-06T01:19:41.184Z,73.20
2023-03-06T01:22:08.365Z,73.50
2023-03-06T01:24:35.583Z,73.30
2023-03-06T01:27:02.833Z,73.40
2023-03-06T01:29:30.061Z,73.70
2023-03-06T01:31:57.281Z,73.90
2023-03-06T01:34:24.515Z,73.80
2023-03-06T01:36:53.065Z,74.30
2023-03-06T01:39:20.277Z,74.40
2023-03-06T01:41:47.476Z,74.90
2023-03-06T01:44:14.763Z,74.70
2023-03-06T01:46:43.064Z,74.90
2023-03-06T01:49:16.538Z,75.00
2023-03-06T01:51:48.676Z,75.10
2023-03-06T01:54:22.466Z,75.20
2023-03-06T01:56:54.059Z,75.10
2023-03-06T01:59:23.510Z,75.20
2023-03-06T02:01:51.037Z,75.40
2023-03-06T02:04:19.273Z,75.50
2023-03-06T02:06:47.655Z,75.50
2023-03-06T02:09:16.803Z,75.80
2023-03-06T02:11:46.158Z,75.70
2023-03-06T02:14:16.664Z,76.00
2023-03-06T02:16:44.602Z,76.20
2023-03-06T02:19:33.626Z,76.80
2023-03-06T02:22:01.081Z,77.10
2023-03-06T02:24:38.708Z,77.20
2023-03-06T02:27:09.773Z,77.10
2023-03-06T02:29:38.007Z,77.00
2023-03-06T02:32:05.915Z,77.30
2023-03-06T02:34:57.633Z,77.60
2023-03-06T02:37:27.415Z,77.90
2023-03-06T02:40:01.671Z,77.70
2023-03-06T02:42:30.683Z,77.40
2023-03-06T02:45:01.187Z,77.50
2023-03-06T02:47:28.443Z,77.70
2023-03-06T02:49:55.678Z,77.90
2023-03-06T02:52:22.928Z,77.90
2023-03-06T02:54:50.143Z,77.90
2023-03-06T02:57:17.677Z,77.90
2023-03-06T02:59:46.961Z,77.80
2023-03-06T03:02:14.402Z,77.70
2023-03-06T03:04:41.655Z,77.90
2023-03-06T03:07:09.538Z,78.00
2023-03-06T03:09:36.903Z,78.20
2023-03-06T03:12:07.098Z,78.50
2023-03-06T03:14:34.769Z,78.40
2023-03-06T03:17:04.691Z,78.30
2023-03-06T03:19:31.917Z,78.40
2023-03-06T03:21:59.176Z,78.30
2023-03-06T03:24:26.809Z,78.50
2023-03-06T03:26:55.076Z,78.50
2023-03-06T03:29:23.883Z,78.40
2023-03-06T03:31:51.402Z,78.20
2023-03-06T03:34:20.037Z,78.30
2023-03-06T03:36:47.596Z,78.30
2023-03-06T03:39:15.596Z,78.50
2023-03-06T03:41:43.704Z,78.70
2023-03-06T03:44:12.466Z,78.70
2023-03-06T03:46:39.862Z,78.80
2023-03-06T03:49:12.054Z,78.80
2023-03-06T03:51:40.731Z,78.90
2023-03-06T03:54:08.057Z,78.80
2023-03-06T03:56:44.856Z,78.70
2023-03-06T03:59:18.076Z,78.40
2023-03-06T04:01:59.632Z,78.30
2023-03-06T04:04:27.540Z,78.20
2023-03-06T04:06:56.061Z,78.00
2023-03-06T04:09:23.476Z,78.10
2023-03-06T04:11:51.140Z,78.50
2023-03-06T04:14:18.628Z,78.80
2023-03-06T04:16:45.869Z,78.80
2023-03-06T04:19:13.156Z,78.70
2023-03-06T04:21:40.955Z,78.70
2023-03-06T04:24:10.527Z,78.60
2023-03-06T04:26:37.793Z,78.50
2023-03-06T04:29:06.220Z,78.00
2023-03-06T04:31:33.841Z,77.80
2023-03-06T04:34:01.142Z,77.50
2023-03-06T04:36:30.225Z,77.40
2023-03-06T04:39:01.841Z,77.00
2023-03-06T04:41:30.683Z,76.70
2023-03-06T04:43:58.039Z,76.60
2023-03-06T04:46:25.270Z,76.20
2023-03-06T04:48:52.477Z,75.80
2023-03-06T04:51:19.682Z,75.80
2023-03-06T04:53:46.898Z,75.90
2023-03-06T04:56:14.113Z,75.50
2023-03-06T04:58:43.012Z,75.50
2023-03-06T05:01:10.444Z,75.90
2023-03-06T05:03:37.707Z,75.80
2023-03-06T05:06:05.584Z,75.50
2023-03-06T05:08:32.914Z,75.80
2023-03-06T05:11:01.868Z,75.40
2023-03-06T05:13:29.455Z,75.30
2023-03-06T05:16:02.972Z,75.10
2023-03-06T05:18:30.257Z,75.10
2023-03-06T05:20:59.782Z,75.10
2023-03-06T05:23:27.224Z,75.20
2023-03-06T05:25:54.479Z,75.00
2023-03-06T05:28:21.700Z,75.00
2023-03-06T05:30:49.166Z,74.90
2023-03-06T05:33:18.148Z,75.00
2023-03-06T05:35:47.169Z,74.80
2023-03-06T05:38:15.015Z,75.00
2023-03-06T05:40:43.830Z,74.90
2023-03-06T05:43:11.899Z,74.80
2023-03-06T05:45:40.550Z,74.50
2023-03-06T05:48:08.727Z,74.80
2023-03-06T05:50:37.230Z,74.50
2023-03-06T05:53:05.985Z,74.60
2023-03-06T05:55:33.174Z,74.60
2023-03-06T05:58:00.451Z,74.70
2023-03-06T06:00:27.664Z,74.60
2023-03-06T06:02:54.872Z,74.30
2023-03-06T06:05:22.102Z,74.30
2023-03-06T06:07:50.629Z,74.30
2023-03-06T06:10:17.994Z,74.10
2023-03-06T06:12:45.179Z,74.00
2023-03-06T06:15:12.493Z,74.00
2023-03-06T06:17:39.706Z,74.60
2023-03-06T06:20:08.504Z,74.60
2023-03-06T06:22:37.407Z,74.40
2023-03-06T06:25:07.398Z,74.00
2023-03-06T06:27:34.851Z,74.00
2023-03-06T06:30:02.083Z,73.90
2023-03-06T06:32:29.314Z,74.00
2023-03-06T06:34:56.856Z,74.10
2023-03-06T06:37:24.799Z,74.00
2023-03-06T06:39:52.443Z,73.90
2023-03-06T06:42:31.960Z,74.00
2023-03-06T06:45:01.502Z,74.40
2023-03-06T06:47:28.737Z,74.20
2023-03-06T06:49:57.100Z,74.30
2023-03-06T06:52:24.935Z,74.00
2023-03-06T06:54:52.770Z,73.80
2023-03-06T06:57:21.841Z,73.70
2023-03-06T06:59:50.641Z,73.90
2023-03-06T07:02:19.046Z,73.70
2023-03-06T07:05:01.895Z,73.90
2023-03-06T07:07:29.574Z,74.20
2023-03-06T07:09:56.899Z,74.00
2023-03-06T07:12:25.427Z,73.80
2023-03-06T07:14:52.627Z,73.80
2023-03-06T07:17:19.875Z,73.80
2023-03-06T07:19:48.074Z,73.80
2023-03-06T07:22:15.415Z,73.90
2023-03-06T07:24:42.631Z,73.70
2023-03-06T07:27:09.862Z,73.70
2023-03-06T07:29:38.401Z,73.80
2023-03-06T07:32:06.043Z,73.80
2023-03-06T07:34:33.344Z,73.90
2023-03-06T07:37:00.561Z,74.10
2023-03-06T07:39:29.965Z,74.00
2023-03-06T07:41:58.569Z,74.00
2023-03-06T07:44:25.902Z,74.70
2023-03-06T07:46:54.525Z,74.80
2023-03-06T07:49:21.939Z,74.70
2023-03-06T07:51:49.492Z,74.60
2023-03-06T07:54:19.692Z,74.50
2023-03-06T07:56:50.069Z,73.90
2023-03-06T07:59:17.372Z,73.80
2023-03-06T08:01:44.629Z,73.60
2023-03-06T08:04:13.358Z,74.10
2023-03-06T08:06:40.671Z,73.20
2023-03-06T08:09:08.255Z,73.30
2023-03-06T08:11:35.453Z,73.10
2023-03-06T08:14:02.817Z,73.90
2023-03-06T08:16:30.897Z,73.50
2023-03-06T08:18:58.511Z,73.20
2023-03-06T08:21:28.049Z,72.60
2023-03-06T08:23:56.108Z,72.30
2023-03-06T08:26:25.287Z,72.10
2023-03-06T08:28:53.289Z,71.90
2023-03-06T08:31:27.076Z,71.90
2023-03-06T08:33:55.401Z,71.80
2023-03-06T08:36:22.653Z,71.70
2023-03-06T08:38:51.576Z,71.70
2023-03-06T08:41:20.348Z,71.50
2023-03-06T08:43:48.294Z,71.50
2023-03-06T08:46:16.002Z,71.20
2023-03-06T08:48:43.253Z,71.00
2023-03-06T08:51:11.247Z,70.90
2023-03-06T08:53:43.596Z,71.00
2023-03-06T08:56:17.856Z,70.90
2023-03-06T08:58:45.094Z,70.90
2023-03-06T09:01:16.877Z,70.80
2023-03-06T09:03:44.206Z,71.00
2023-03-06T09:06:11.887Z,70.30
2023-03-06T09:08:43.090Z,70.70
2023-03-06T09:11:11.068Z,70.90
2023-03-06T09:13:39.669Z,71.00
2023-03-06T09:16:07.335Z,71.00
2023-03-06T09:18:34.617Z,70.90
2023-03-06T09:21:01.918Z,71.00
2023-03-06T09:23:29.220Z,71.30
2023-03-06T09:25:58.946Z,71.50
2023-03-06T09:28:45.198Z,71.80
2023-03-06T09:31:15.548Z,71.30
2023-03-06T09:33:43.209Z,71.50
2023-03-06T09:36:14.950Z,71.30
2023-03-06T09:38:42.263Z,71.30
2023-03-06T09:41:22.103Z,71.20
2023-03-06T09:43:53.255Z,70.60
2023-03-06T09:46:25.411Z,71.00
2023-03-06T09:49:02.674Z,71.00
2023-03-06T09:51:36.562Z,71.10
2023-03-06T09:54:11.527Z,70.90
2023-03-06T09:56:39.097Z,71.20
2023-03-06T09:59:14.215Z,71.40
2023-03-06T10:01:44.400Z,70.80
2023-03-06T10:04:27.698Z,71.60
2023-03-06T10:06:59.571Z,71.40
2023-03-06T10:09:37.171Z,71.50
2023-03-06T10:12:09.498Z,71.30
2023-03-06T10:14:41.821Z,71.40
2023-03-06T10:17:15.620Z,71.00
2023-03-06T10:19:42.982Z,71.00
2023-03-06T10:22:19.700Z,71.00
2023-03-06T10:24:54.463Z,70.70
2023-03-06T10:27:32.791Z,71.00
2023-03-06T10:30:21.871Z,71.10
2023-03-06T10:32:58.368Z,71.00
2023-03-06T10:35:31.049Z,70.80
2023-03-06T10:38:01.776Z,71.10
2023-03-06T10:40:40.634Z,71.40
2023-03-06T10:43:12.177Z,71.70
2023-03-06T10:45:51.798Z,71.30
2023-03-06T10:48:21.390Z,71.00
2023-03-06T10:50:48.932Z,71.30
2023-03-06T10:53:21.431Z,71.40
2023-03-06T10:55:53.747Z,71.40
2023-03-06T10:58:24.675Z,71.30
2023-03-06T11:01:07.229Z,71.40
2023-03-06T11:03:35.402Z,71.20
2023-03-06T11:06:07.349Z,70.90
2023-03-06T11:08:35.424Z,70.80
2023-03-06T11:11:05.807Z,71.40
2023-03-06T11:13:35.697Z,71.40
2023-03-06T11:16:07.422Z,70.90
2023-03-06T11:18:38.571Z,70.60
2023-03-06T11:21:22.311Z,70.30
2023-03-06T11:23:50.596Z,70.50
2023-03-06T11:26:44.956Z,70.80
2023-03-06T11:29:35.322Z,70.50
2023-03-06T11:32:12.390Z,70.40
2023-03-06T11:34:47.251Z,69.90
2023-03-06T11:37:23.317Z,69.70
2023-03-06T11:39:59.471Z,69.20
2023-03-06T11:42:29.053Z,69.00
2023-03-06T11:45:11.268Z,68.60
2023-03-06T11:47:44.060Z,68.60
2023-03-06T11:50:18.988Z,68.70
2023-03-06T11:52:50.595Z,69.00
2023-03-06T11:55:27.602Z,69.50
2023-03-06T11:58:11.787Z,69.10
2023-03-06T12:00:50.008Z,69.70
2023-03-06T12:03:41.827Z,69.90
2023-03-06T12:06:16.159Z,69.10
2023-03-06T12:08:55.954Z,69.60
2023-03-06T12:11:30.652Z,69.40
2023-03-06T12:14:18.662Z,69.00
2023-03-06T12:17:00.188Z,68.10
2023-03-06T12:19:43.485Z,68.10
2023-03-06T12:22:26.250Z,67.30
2023-03-06T12:25:25.709Z,67.60
2023-03-06T12:28:03.149Z,67.90
2023-03-06T12:30:53.503Z,67.60
2023-03-06T12:33:30.914Z,66.40
2023-03-06T12:36:12.426Z,66.90
2023-03-06T12:39:05.735Z,66.80
2023-03-06T12:41:42.863Z,66.30
2023-03-06T12:44:30.931Z,65.40
2023-03-06T12:47:01.909Z,65.40
2023-03-06T12:49:33.137Z,65.70
2023-03-06T12:52:04.348Z,65.90
2023-03-06T12:54:35.935Z,65.70
2023-03-06T12:57:06.853Z,64.30
2023-03-06T12:59:39.746Z,64.90
2023-03-06T13:02:28.863Z,64.40
2023-03-06T13:05:21.576Z,64.90
2023-03-06T13:08:10.282Z,64.70
2023-03-06T13:10:40.337Z,65.00
2023-03-06T13:13:29.402Z,63.00
2023-03-06T13:16:11.445Z,63.60
2023-03-06T13:19:04.096Z,62.80
2023-03-06T13:21:47.217Z,62.60
2023-03-06T13:24:18.983Z,60.50
2023-03-06T13:26:58.121Z,62.10
2023-03-06T13:29:58.719Z,63.10
2023-03-06T13:32:31.482Z,61.30
2023-03-06T13:34:58.890Z,61.20
2023-03-06T13:37:48.617Z,59.70
2023-03-06T13:40:28.518Z,58.60
2023-03-06T13:43:28.622Z,55.00
2023-03-06T13:45:55.926Z,55.00
2023-03-06T13:48:44.823Z,53.30
2023-03-06T13:51:23.868Z,53.80
2023-03-06T13:54:12.092Z,53.40
2023-03-06T13:57:04.198Z,51.60
2023-03-06T13:59:57.042Z,52.70
2023-03-06T14:02:53.566Z,51.80
2023-03-06T14:05:21.765Z,49.00
2023-03-06T14:08:01.802Z,48.80
2023-03-06T14:10:32.668Z,50.30
2023-03-06T14:13:07.123Z,50.20
2023-03-06T14:15:44.412Z,47.30
2023-03-06T14:18:19.115Z,48.80
2023-03-06T14:20:50.448Z,47.20
2023-03-06T14:23:26.556Z,48.80
2023-03-06T14:26:05.374Z,49.60
2023-03-06T14:28:35.540Z,49.80
2023-03-06T14:31:05.044Z,49.90
2023-03-06T14:33:39.169Z,49.20
2023-03-06T14:36:10.651Z,50.50
2023-03-06T14:38:45.053Z,48.90
2023-03-06T14:41:14.106Z,49.80
2023-03-06T14:43:42.861Z,48.60
2023-03-06T14:46:19.434Z,49.60
2023-03-06T14:48:48.694Z,48.60
2023-03-06T14:51:18.351Z,46.80
2023-03-06T14:53:48.565Z,44.10
2023-03-06T14:56:18.660Z,44.30
2023-03-06T14:58:55.343Z,45.80
2023-03-06T15:01:28.520Z,45.50
2023-03-06T15:03:58.899Z,46.70
2023-03-06T15:06:31.284Z,43.60
2023-03-06T15:09:02.080Z,46.10
2023-03-06T15:11:54.211Z,46.20
2023-03-06T15:14:33.383Z,48.30
2023-03-06T15:17:26.146Z,47.60
2023-03-06T15:19:55.197Z,47.00
2023-03-06T15:22:28.837Z,45.20
2023-03-06T15:25:17.624Z,47.80
2023-03-06T15:27:49.441Z,47.70
2023-03-06T15:30:25.560Z,47.20
2023-03-06T15:33:22.234Z,47.20
2023-03-06T15:35:54.970Z,46.20
2023-03-06T15:38:31.427Z,46.80
2023-03-06T15:41:00.201Z,47.20
2023-03-06T15:43:28.547Z,47.00
2023-03-06T15:46:00.213Z,46.10
2023-03-06T15:48:28.336Z,46.60
2023-03-06T15:50:55.677Z,46.20
2023-03-06T15:53:23.092Z,45.40
2023-03-06T15:55:51.637Z,46.90
2023-03-06T15:58:23.361Z,44.60
2023-03-06T16:00:51.032Z,45.70
2023-03-06T16:03:19.618Z,44.90
2023-03-06T16:05:46.884Z,45.30
2023-03-06T16:08:14.928Z,46.50
2023-03-06T16:10:44.001Z,47.40
2023-03-06T16:13:13.839Z,46.30
2023-03-06T16:15:46.295Z,46.40
2023-03-06T16:18:13.869Z,47.50
2023-03-06T16:20:42.625Z,46.50
2023-03-06T16:23:10.653Z,46.50
2023-03-06T16:25:39.311Z,48.30
2023-03-06T16:28:11.587Z,48.40
2023-03-06T16:30:38.849Z,47.70
2023-03-06T16:33:06.377Z,49.30
2023-03-06T16:35:33.688Z,49.20
2023-03-06T16:38:02.432Z,49.50
2023-03-06T16:40:32.518Z,49.30
2023-03-06T16:42:59.730Z,49.70
2023-03-06T16:45:27.078Z,50.30
2023-03-06T16:47:54.527Z,49.50
2023-03-06T16:50:24.199Z,50.40
2023-03-06T16:52:53.207Z,50.10
2023-03-06T16:55:23.221Z,50.20
2023-03-06T16:57:50.461Z,50.50
2023-03-06T17:00:19.118Z,50.60
2023-03-06T17:02:49.030Z,50.70
2023-03-06T17:05:17.031Z,52.10
2023-03-06T17:07:44.474Z,53.10
2023-03-06T17:10:14.631Z,54.30
2023-03-06T17:12:43.586Z,55.00
2023-03-06T17:15:11.560Z,55.30
2023-03-06T17:17:38.783Z,56.10
2023-03-06T17:20:12.637Z,56.80
2023-03-06T17:22:41.485Z,57.80
2023-03-06T17:25:09.604Z,58.40
2023-03-06T17:27:37.467Z,59.00
2023-03-06T17:30:07.379Z,59.40
2023-03-06T17:32:34.790Z,59.30
2023-03-06T17:35:02.047Z,59.30
2023-03-06T17:37:29.423Z,59.70
2023-03-06T17:39:56.692Z,59.70
2023-03-06T17:42:23.917Z,60.30
2023-03-06T17:44:52.864Z,60.50
2023-03-06T17:47:21.405Z,60.80
2023-03-06T17:49:48.651Z,60.60
2023-03-06T17:52:15.870Z,60.70
2023-03-06T17:54:43.065Z,61.30
2023-03-06T17:57:10.253Z,61.30
2023-03-06T17:59:37.518Z,61.50
2023-03-06T18:02:06.324Z,61.60
2023-03-06T18:04:35.030Z,62.50
2023-03-06T18:07:02.322Z,63.20
2023-03-06T18:09:29.677Z,63.30
2023-03-06T18:11:56.884Z,63.50
2023-03-06T18:14:24.393Z,64.10
2023-03-06T18:16:51.662Z,64.50
2023-03-06T18:19:18.956Z,65.00
2023-03-06T18:21:47.551Z,64.80
2023-03-06T18:24:14.790Z,64.80
2023-03-06T18:26:42.510Z,64.80
2023-03-06T18:29:10.072Z,64.80
2023-03-06T18:31:38.487Z,65.40
2023-03-06T18:34:08.039Z,65.30
2023-03-06T18:36:35.740Z,65.30
2023-03-06T18:39:06.133Z,65.40
2023-03-06T18:41:33.371Z,65.30
2023-03-06T18:44:02.065Z,66.00
2023-03-06T18:46:30.861Z,65.90
2023-03-06T18:48:58.345Z,65.90
2023-03-06T18:51:26.092Z,66.50
2023-03-06T18:53:56.095Z,67.20
2023-03-06T18:56:24.842Z,67.40
2023-03-06T18:58:53.445Z,67.50
2023-03-06T19:01:22.395Z,67.50
2023-03-06T19:03:49.979Z,67.60
2023-03-06T19:06:17.671Z,67.40
2023-03-06T19:08:45.175Z,67.20
2023-03-06T19:11:18.180Z,67.40
2023-03-06T19:13:46.791Z,67.50
2023-03-06T19:16:18.456Z,67.40
2023-03-06T19:18:45.881Z,67.60
2023-03-06T19:21:14.921Z,67.70
2023-03-06T19:23:42.722Z,67.60
2023-03-06T19:26:10.694Z,67.90
2023-03-06T19:28:39.780Z,68.00
2023-03-06T19:31:13.384Z,68.00
2023-03-06T19:33:41.670Z,68.00
2023-03-06T19:36:11.464Z,68.10
2023-03-06T19:38:39.162Z,68.30
2023-03-06T19:41:11.718Z,68.40
2023-03-06T19:43:39.946Z,68.30
2023-03-06T19:46:12.571Z,68.60
2023-03-06T19:48:40.349Z,68.70
2023-03-06T19:51:08.116Z,68.80
2023-03-06T19:53:35.552Z,69.40
2023-03-06T19:56:05.627Z,69.30
2023-03-06T19:58:33.401Z,69.30
2023-03-06T20:01:05.524Z,69.30
2023-03-06T20:03:34.196Z,69.30
2023-03-06T20:06:02.880Z,69.60
2023-03-06T20:08:30.277Z,69.70
2023-03-06T20:10:57.576Z,69.70
2023-03-06T20:13:24.893Z,69.50
2023-03-06T20:15:52.225Z,69.50
2023-03-06T20:18:19.525Z,69.50
2023-03-06T20:20:57.596Z,69.60
2023-03-06T20:23:25.026Z,69.50
2023-03-06T20:25:52.488Z,69.60
2023-03-06T20:28:19.779Z,69.70
2023-03-06T20:30:47.597Z,70.10
2023-03-06T20:33:15.404Z,70.20
2023-03-06T20:35:43.192Z,70.30
2023-03-06T20:38:11.815Z,70.20
2023-03-06T20:40:39.783Z,70.80
2023-03-06T20:43:07.706Z,70.80
2023-03-06T20:45:35.220Z,71.10
2023-03-06T20:48:02.632Z,71.40
2023-03-06T20:50:30.004Z,71.40
2023-03-06T20:52:58.796Z,71.70
2023-03-06T20:55:27.446Z,72.20
2023-03-06T20:57:54.845Z,72.40
2023-03-06T21:00:22.180Z,72.50
2023-03-06T21:02:49.559Z,72.70
2023-03-06T21:05:17.121Z,72.80
2023-03-06T21:07:44.557Z,72.70
2023-03-06T21:10:13.330Z,72.60
2023-03-06T21:12:42.362Z,72.50
2023-03-06T21:15:10.454Z,72.50
2023-03-06T21:17:37.819Z,72.60
2023-03-06T21:20:06.512Z,72.30
2023-03-06T21:22:33.971Z,72.30
2023-03-06T21:25:01.378Z,72.30
2023-03-06T21:27:28.674Z,72.50
2023-03-06T21:29:57.285Z,72.40
2023-03-06T21:32:24.545Z,72.60
2023-03-06T21:34:51.838Z,72.40
2023-03-06T21:37:19.162Z,72.10
2023-03-06T21:39:46.498Z,72.30
2023-03-06T21:42:13.847Z,72.60
2023-03-06T21:44:41.235Z,72.60
2023-03-06T21:47:09.920Z,72.70
2023-03-06T21:49:37.491Z,72.90
2023-03-06T21:52:05.007Z,72.80
2023-03-06T21:54:32.370Z,72.80
2023-03-06T21:56:59.749Z,72.70
2023-03-06T21:59:27.028Z,72.80
2023-03-06T22:01:54.354Z,72.80
2023-03-06T22:04:23.134Z,72.70
2023-03-06T22:06:50.546Z,72.70
2023-03-06T22:09:19.886Z,72.90
2023-03-06T22:11:47.390Z,72.90
2023-03-06T22:14:14.864Z,73.30
2023-03-06T22:16:44.136Z,73.30
2023-03-06T22:19:11.380Z,73.20
2023-03-06T22:21:39.946Z,73.50
2023-03-06T22:24:07.350Z,73.40
2023-03-06T22:26:34.592Z,73.20
2023-03-06T22:29:01.818Z,73.20
2023-03-06T22:31:29.341Z,73.50
2023-03-06T22:33:57.742Z,73.40
2023-03-06T22:36:25.414Z,73.30
2023-03-06T22:38:57.238Z,73.20
2023-03-06T22:41:26.716Z,72.90
2023-03-06T22:43:55.457Z,73.30
2023-03-06T22:46:22.842Z,73.30
2023-03-06T22:48:50.172Z,73.20
2023-03-06T22:51:19.587Z,73.40
2023-03-06T22:53:48.029Z,73.50
2023-03-06T22:56:19.250Z,73.60
2023-03-06T22:58:47.646Z,73.70
2023-03-06T23:01:17.208Z,73.70
2023-03-06T23:03:46.173Z,73.90
2023-03-06T23:06:15.147Z,73.80
2023-03-06T23:08:43.236Z,73.90
2023-03-06T23:11:12.541Z,73.80
2023-03-06T23:13:59.877Z,73.90
2023-03-06T23:16:46.224Z,73.80
2023-03-06T23:19:31.909Z,73.80
2023-03-06T23:22:17.643Z,73.90
2023-03-06T23:25:03.759Z,74.20
2023-03-06T23:27:30.965Z,74.10
2023-03-06T23:29:59.467Z,74.10
2023-03-06T23:32:26.749Z,74.10
2023-03-06T23:34:54.057Z,74.30
2023-03-06T23:37:21.245Z,74.50
2023-03-06T23:39:48.530Z,74.70
2023-03-06T23:42:15.734Z,75.00
2023-03-06T23:44:43.157Z,75.40
2023-03-06T23:47:11.674Z,75.50
2023-03-06T23:49:39.972Z,75.90
2023-03-06T23:52:07.220Z,76.20
2023-03-06T23:54:35.712Z,76.40
2023-03-06T23:57:03.200Z,76.50
2023-03-06T23:59:30.449Z,76.80
